createdAt,value
2023-04-09T00:01:39.637Z,10.96
2023-04-09T00:04:06.474Z,10.97
2023-04-09T00:06:33.366Z,10.97
2023-04-09T00:09:00.280Z,10.98
2023-04-09T00:11:31.307Z,10.98
2023-04-09T00:13:58.428Z,10.98
2023-04-09T00:16:27.777Z,10.97
2023-04-09T00:18:54.693Z,10.95
2023-04-09T00:21:21.594Z,10.94
2023-04-09T00:23:48.387Z,10.92
2023-04-09T00:26:15.717Z,10.91
2023-04-09T00:28:43.899Z,10.88
2023-04-09T00:31:11.393Z,10.87
2023-04-09T00:33:38.243Z,10.86
2023-04-09T00:36:05.705Z,10.88
2023-04-09T00:38:34.007Z,10.87
2023-04-09T00:41:02.343Z,10.85
2023-04-09T00:43:29.539Z,10.85
2023-04-09T00:45:58.585Z,10.84
2023-04-09T00:48:25.900Z,10.86
2023-04-09T00:50:56.652Z,10.87
2023-04-09T00:53:23.875Z,10.87
2023-04-09T00:55:51.106Z,10.87
2023-04-09T00:58:18.234Z,10.86
2023-04-09T01:00:47.801Z,10.87
2023-04-09T01:03:16.633Z,10.88
2023-04-09T01:05:57.385Z,10.88
2023-04-09T01:08:33.595Z,10.88
2023-04-09T01:11:10.252Z,10.89
2023-04-09T01:13:50.443Z,10.86
2023-04-09T01:16:20.300Z,10.85
2023-04-09T01:18:52.835Z,10.84
2023-04-09T01:21:23.376Z,10.82
2023-04-09T01:24:08.639Z,10.82
2023-04-09T01:26:46.579Z,10.82
2023-04-09T01:29:17.593Z,10.80
2023-04-09T01:31:45.426Z,10.78
2023-04-09T01:34:16.784Z,10.77
2023-04-09T01:36:48.423Z,10.77
2023-04-09T01:39:15.780Z,10.79
2023-04-09T01:41:43.609Z,10.77
2023-04-09T01:44:15.160Z,10.76
2023-04-09T01:46:42.883Z,10.74
2023-04-09T01:49:11.005Z,10.74
2023-04-09T01:51:38.838Z,10.75
2023-04-09T01:54:05.902Z,10.75
2023-04-09T01:56:41.367Z,10.78
2023-04-09T01:59:08.200Z,10.80
2023-04-09T02:01:44.672Z,10.78
2023-04-09T02:04:18.974Z,10.75
2023-04-09T02:06:53.881Z,10.74
2023-04-09T02:09:21.775Z,10.74
2023-04-09T02:11:50.086Z,10.74
2023-04-09T02:14:18.754Z,10.74
2023-04-09T02:16:47.159Z,10.78
2023-04-09T02:19:14.125Z,10.76
2023-04-09T02:21:40.942Z,10.77
2023-04-09T02:24:07.744Z,10.76
2023-04-09T02:26:34.566Z,10.77
2023-04-09T02:29:01.352Z,10.75
2023-04-09T02:31:28.242Z,10.74
2023-04-09T02:33:56.574Z,10.74
2023-04-09T02:36:23.382Z,10.72
2023-04-09T02:38:50.415Z,10.72
2023-04-09T02:41:17.493Z,10.71
2023-04-09T02:43:44.270Z,10.70
2023-04-09T02:46:11.077Z,10.68
2023-04-09T02:48:38.158Z,10.67
2023-04-09T02:51:07.168Z,10.65
2023-04-09T02:53:33.962Z,10.65
2023-04-09T02:56:00.768Z,10.63
2023-04-09T02:58:27.653Z,10.64
2023-04-09T03:00:54.628Z,10.63
2023-04-09T03:03:21.617Z,10.62
2023-04-09T03:05:48.481Z,10.60
2023-04-09T03:08:16.765Z,10.59
2023-04-09T03:10:43.607Z,10.58
2023-04-09T03:13:10.394Z,10.56
2023-04-09T03:15:37.251Z,10.56
2023-04-09T03:18:04.463Z,10.55
2023-04-09T03:20:31.241Z,10.55
2023-04-09T03:22:58.328Z,10.56
2023-04-09T03:25:26.722Z,10.55
2023-04-09T03:27:54.084Z,10.55
2023-04-09T03:30:21.027Z,10.56
2023-04-09T03:32:47.800Z,10.55
2023-04-09T03:35:14.677Z,10.57
2023-04-09T03:37:41.865Z,10.58
2023-04-09T03:40:09.604Z,10.56
2023-04-09T03:42:38.002Z,10.55
2023-04-09T03:45:06.009Z,10.54
2023-04-09T03:47:33.588Z,10.51
2023-04-09T03:50:00.844Z,10.52
2023-04-09T03:52:27.873Z,10.50
2023-04-09T03:54:55.018Z,10.48
2023-04-09T03:57:22.330Z,10.49
2023-04-09T03:59:50.457Z,10.48
2023-04-09T04:02:17.905Z,10.44
2023-04-09T04:04:48.285Z,10.43
2023-04-09T04:07:22.560Z,10.40
2023-04-09T04:09:51.717Z,10.39
2023-04-09T04:12:22.483Z,10.38
2023-04-09T04:14:50.876Z,10.36
2023-04-09T04:17:18.178Z,10.36
2023-04-09T04:19:45.098Z,10.35
2023-04-09T04:22:11.902Z,10.32
2023-04-09T04:24:39.653Z,10.30
2023-04-09T04:27:07.704Z,10.29
2023-04-09T04:29:35.443Z,10.27
2023-04-09T04:32:03.900Z,10.23
2023-04-09T04:34:31.193Z,10.22
2023-04-09T04:36:58.208Z,10.20
2023-04-09T04:39:25.073Z,10.19
2023-04-09T04:41:54.053Z,10.17
2023-04-09T04:44:20.855Z,10.14
2023-04-09T04:46:47.647Z,10.10
2023-04-09T04:49:16.082Z,10.10
2023-04-09T04:51:42.874Z,10.08
2023-04-09T04:54:10.971Z,10.06
2023-04-09T04:56:38.242Z,10.05
2023-04-09T04:59:05.331Z,10.03
2023-04-09T05:01:34.939Z,9.99
2023-04-09T05:04:03.510Z,9.94
2023-04-09T05:06:32.385Z,9.91
2023-04-09T05:09:00.310Z,9.86
2023-04-09T05:11:28.549Z,9.78
2023-04-09T05:13:55.726Z,9.71
2023-04-09T05:16:22.506Z,9.65
2023-04-09T05:18:51.110Z,9.59
2023-04-09T05:21:18.497Z,9.57
2023-04-09T05:23:48.202Z,9.50
2023-04-09T05:26:17.301Z,9.47
2023-04-09T05:28:45.616Z,9.46
2023-04-09T05:31:14.151Z,9.41
2023-04-09T05:33:41.325Z,9.39
2023-04-09T05:36:15.855Z,9.32
2023-04-09T05:38:42.688Z,9.28
2023-04-09T05:41:14.951Z,9.25
2023-04-09T05:43:42.904Z,9.22
2023-04-09T05:46:09.777Z,9.20
2023-04-09T05:48:39.510Z,9.19
2023-04-09T05:51:06.537Z,9.17
2023-04-09T05:53:33.928Z,9.15
2023-04-09T05:56:00.995Z,9.16
2023-04-09T05:58:30.262Z,9.15
2023-04-09T06:00:57.983Z,9.12
2023-04-09T06:03:34.056Z,9.09
2023-04-09T06:06:00.842Z,9.08
2023-04-09T06:08:27.809Z,9.08
2023-04-09T06:10:54.577Z,9.06
2023-04-09T06:13:22.694Z,9.07
2023-04-09T06:15:53.277Z,9.06
2023-04-09T06:18:20.108Z,9.02
2023-04-09T06:20:47.096Z,9.00
2023-04-09T06:23:14.434Z,8.98
2023-04-09T06:25:41.943Z,8.97
2023-04-09T06:28:09.083Z,8.99
2023-04-09T06:30:37.263Z,9.00
2023-04-09T06:33:05.667Z,9.00
2023-04-09T06:35:32.686Z,9.01
2023-04-09T06:37:59.942Z,9.04
2023-04-09T06:40:27.662Z,8.99
2023-04-09T06:42:54.500Z,8.96
2023-04-09T06:45:21.404Z,8.95
2023-04-09T06:47:48.744Z,8.97
2023-04-09T06:50:17.137Z,8.98
2023-04-09T06:52:43.888Z,9.00
2023-04-09T06:55:11.871Z,9.06
2023-04-09T06:57:39.319Z,9.09
2023-04-09T07:00:09.664Z,9.08
2023-04-09T07:02:37.152Z,9.08
2023-04-09T07:05:04.712Z,9.08
2023-04-09T07:07:32.844Z,9.13
2023-04-09T07:09:59.727Z,9.15
2023-04-09T07:12:27.278Z,9.18
2023-04-09T07:14:58.130Z,9.24
2023-04-09T07:17:24.896Z,9.26
2023-04-09T07:19:52.061Z,9.29
2023-04-09T07:22:18.837Z,9.32
2023-04-09T07:24:47.147Z,9.36
2023-04-09T07:27:14.039Z,9.39
2023-04-09T07:29:44.273Z,9.46
2023-04-09T07:32:11.663Z,9.50
2023-04-09T07:34:38.544Z,9.54
2023-04-09T07:37:05.653Z,9.57
2023-04-09T07:39:32.536Z,9.60
2023-04-09T07:42:02.842Z,9.63
2023-04-09T07:44:29.614Z,9.65
2023-04-09T07:46:56.732Z,9.68
2023-04-09T07:49:23.612Z,9.73
2023-04-09T07:51:50.884Z,9.78
2023-04-09T07:54:18.961Z,9.83
2023-04-09T07:56:46.398Z,9.87
2023-04-09T07:59:19.485Z,9.91
2023-04-09T08:01:46.817Z,9.94
2023-04-09T08:04:25.242Z,9.98
2023-04-09T08:06:53.669Z,10.01
2023-04-09T08:09:20.897Z,10.07
2023-04-09T08:11:50.010Z,10.12
2023-04-09T08:14:21.897Z,10.17
2023-04-09T08:16:51.133Z,10.23
2023-04-09T08:19:19.473Z,10.29
2023-04-09T08:21:49.569Z,10.33
2023-04-09T08:24:19.595Z,10.37
2023-04-09T08:26:47.651Z,10.41
2023-04-09T08:29:15.596Z,10.46
2023-04-09T08:31:44.278Z,10.49
2023-04-09T08:34:13.203Z,10.53
2023-04-09T08:36:40.351Z,10.59
2023-04-09T08:39:07.441Z,10.62
2023-04-09T08:41:36.665Z,10.67
2023-04-09T08:44:03.874Z,10.75
2023-04-09T08:46:32.061Z,10.82
2023-04-09T08:49:00.335Z,10.90
2023-04-09T08:51:29.344Z,10.97
2023-04-09T08:54:03.242Z,11.04
2023-04-09T08:56:33.282Z,11.08
2023-04-09T08:59:03.238Z,11.13
2023-04-09T09:01:32.106Z,11.19
2023-04-09T09:04:04.044Z,11.24
2023-04-09T09:06:34.159Z,11.28
2023-04-09T09:09:08.672Z,11.32
2023-04-09T09:11:43.042Z,11.35
2023-04-09T09:14:15.309Z,11.39
2023-04-09T09:17:09.679Z,11.46
2023-04-09T09:19:38.191Z,11.51
2023-04-09T09:22:06.686Z,11.55
2023-04-09T09:24:34.631Z,11.57
2023-04-09T09:27:02.719Z,11.61
2023-04-09T09:29:29.702Z,11.66
2023-04-09T09:31:57.174Z,11.73
2023-04-09T09:34:26.079Z,11.81
2023-04-09T09:36:55.917Z,11.85
2023-04-09T09:39:22.717Z,11.91
2023-04-09T09:42:07.394Z,11.99
2023-04-09T09:44:34.128Z,12.04
2023-04-09T09:47:03.530Z,12.10
2023-04-09T09:49:30.812Z,12.16
2023-04-09T09:52:03.487Z,12.22
2023-04-09T09:54:36.386Z,12.28
2023-04-09T09:57:06.867Z,12.34
2023-04-09T09:59:40.675Z,12.40
2023-04-09T10:02:16.866Z,12.46
2023-04-09T10:04:44.634Z,12.51
2023-04-09T10:07:14.255Z,12.56
2023-04-09T10:09:42.967Z,12.62
2023-04-09T10:12:12.123Z,12.65
2023-04-09T10:14:41.628Z,12.72
2023-04-09T10:17:08.469Z,12.79
2023-04-09T10:19:39.888Z,12.85
2023-04-09T10:22:10.509Z,12.91
2023-04-09T10:24:39.532Z,12.97
2023-04-09T10:27:10.303Z,13.03
2023-04-09T10:29:43.244Z,13.09
2023-04-09T10:32:10.163Z,13.14
2023-04-09T10:34:42.788Z,13.18
2023-04-09T10:37:14.185Z,13.24
2023-04-09T10:39:45.639Z,13.31
2023-04-09T10:42:14.938Z,13.38
2023-04-09T10:44:42.710Z,13.45
2023-04-09T10:47:10.077Z,13.50
2023-04-09T10:49:38.251Z,13.55
2023-04-09T10:52:13.872Z,13.60
2023-04-09T10:54:45.461Z,13.65
2023-04-09T10:57:21.554Z,13.69
2023-04-09T10:59:50.102Z,13.74
2023-04-09T11:02:52.452Z,13.83
2023-04-09T11:05:25.371Z,13.91
2023-04-09T11:08:07.052Z,13.94
2023-04-09T11:10:37.215Z,13.99
2023-04-09T11:13:04.360Z,14.04
2023-04-09T11:15:32.240Z,14.07
2023-04-09T11:17:59.192Z,14.09
2023-04-09T11:20:27.170Z,14.11
2023-04-09T11:22:57.046Z,14.17
2023-04-09T11:25:34.143Z,14.19
2023-04-09T11:28:05.145Z,14.26
2023-04-09T11:30:34.524Z,14.31
2023-04-09T11:33:02.493Z,14.35
2023-04-09T11:35:29.393Z,14.40
2023-04-09T11:37:57.694Z,14.42
2023-04-09T11:40:29.323Z,14.46
2023-04-09T11:42:59.025Z,14.52
2023-04-09T11:45:32.338Z,14.58
2023-04-09T11:48:00.788Z,14.63
2023-04-09T11:50:28.065Z,14.70
2023-04-09T11:52:54.949Z,14.73
2023-04-09T11:55:27.152Z,14.77
2023-04-09T11:57:58.117Z,14.81
2023-04-09T12:00:25.246Z,14.84
2023-04-09T12:02:59.974Z,14.88
2023-04-09T12:05:29.614Z,14.91
2023-04-09T12:07:58.814Z,14.97
2023-04-09T12:10:28.883Z,15.02
2023-04-09T12:13:00.914Z,15.07
2023-04-09T12:15:32.397Z,15.12
2023-04-09T12:18:07.793Z,15.16
2023-04-09T12:20:37.867Z,15.20
2023-04-09T12:23:07.423Z,15.20
2023-04-09T12:25:39.455Z,15.20
2023-04-09T12:28:07.940Z,15.24
2023-04-09T12:30:36.773Z,15.27
2023-04-09T12:33:06.140Z,15.33
2023-04-09T12:35:35.686Z,15.37
2023-04-09T12:38:05.243Z,15.43
2023-04-09T12:40:32.255Z,15.49
2023-04-09T12:42:59.217Z,15.53
2023-04-09T12:45:26.087Z,15.56
2023-04-09T12:47:53.132Z,15.57
2023-04-09T12:50:21.430Z,15.58
2023-04-09T12:52:48.207Z,15.58
2023-04-09T12:55:15.759Z,15.61
2023-04-09T12:57:44.294Z,15.64
2023-04-09T13:00:12.984Z,15.72
2023-04-09T13:02:40.240Z,15.78
2023-04-09T13:05:07.819Z,15.83
2023-04-09T13:07:36.234Z,15.86
2023-04-09T13:10:03.591Z,15.90
2023-04-09T13:12:30.617Z,15.91
2023-04-09T13:14:57.559Z,15.94
2023-04-09T13:17:24.598Z,15.99
2023-04-09T13:19:51.892Z,16.04
2023-04-09T13:22:18.907Z,16.08
2023-04-09T13:24:47.384Z,16.11
2023-04-09T13:27:14.690Z,16.15
2023-04-09T13:29:41.554Z,16.17
2023-04-09T13:32:10.659Z,16.18
2023-04-09T13:34:39.005Z,16.22
2023-04-09T13:37:06.458Z,16.25
2023-04-09T13:39:33.608Z,16.27
2023-04-09T13:42:07.321Z,16.29
2023-04-09T13:44:37.085Z,16.32
2023-04-09T13:47:04.009Z,16.37
2023-04-09T13:49:31.029Z,16.36
2023-04-09T13:51:58.314Z,16.33
2023-04-09T13:54:25.121Z,16.29
2023-04-09T13:56:52.101Z,16.28
2023-04-09T13:59:20.534Z,16.28
2023-04-09T14:01:47.427Z,16.29
2023-04-09T14:04:16.243Z,16.34
2023-04-09T14:06:43.340Z,16.39
2023-04-09T14:09:10.468Z,16.41
2023-04-09T14:11:37.378Z,16.45
2023-04-09T14:14:04.827Z,16.48
2023-04-09T14:16:33.286Z,16.52
2023-04-09T14:19:01.208Z,16.55
2023-04-09T14:21:29.562Z,16.57
2023-04-09T14:23:57.396Z,16.59
2023-04-09T14:26:24.540Z,16.59
2023-04-09T14:28:52.047Z,16.60
2023-04-09T14:31:21.792Z,16.63
2023-04-09T14:33:50.015Z,16.67
2023-04-09T14:36:17.840Z,16.69
2023-04-09T14:38:44.678Z,16.70
2023-04-09T14:41:11.469Z,16.70
2023-04-09T14:43:38.272Z,16.73
2023-04-09T14:46:11.885Z,16.72
2023-04-09T14:48:41.934Z,16.71
2023-04-09T14:51:11.124Z,16.71
2023-04-09T14:53:38.309Z,16.73
2023-04-09T14:56:10.807Z,16.69
2023-04-09T14:58:38.067Z,16.65
2023-04-09T15:01:05.301Z,16.61
2023-04-09T15:03:34.960Z,16.56
2023-04-09T15:06:02.104Z,16.53
2023-04-09T15:08:36.288Z,16.51
2023-04-09T15:11:03.215Z,16.49
2023-04-09T15:13:30.415Z,16.48
2023-04-09T15:15:59.012Z,16.43
2023-04-09T15:18:26.020Z,16.39
2023-04-09T15:20:52.866Z,16.37
2023-04-09T15:23:19.592Z,16.36
2023-04-09T15:25:47.865Z,16.33
2023-04-09T15:28:15.748Z,16.30
2023-04-09T15:30:45.096Z,16.28
2023-04-09T15:33:13.388Z,16.24
2023-04-09T15:35:40.264Z,16.23
2023-04-09T15:38:07.360Z,16.22
2023-04-09T15:40:35.838Z,16.23
2023-04-09T15:43:04.289Z,16.23
2023-04-09T15:45:31.307Z,16.23
2023-04-09T15:48:04.035Z,16.23
2023-04-09T15:50:33.527Z,16.24
2023-04-09T15:53:01.709Z,16.26
2023-04-09T15:55:28.474Z,16.25
2023-04-09T15:57:55.796Z,16.23
2023-04-09T16:00:25.163Z,16.23
2023-04-09T16:02:53.437Z,16.22
2023-04-09T16:05:21.690Z,16.22
2023-04-09T16:07:51.508Z,16.20
2023-04-09T16:10:18.304Z,16.20
2023-04-09T16:12:45.443Z,16.19
2023-04-09T16:15:12.369Z,16.18
2023-04-09T16:17:41.326Z,16.16
2023-04-09T16:20:09.439Z,16.14
2023-04-09T16:22:39.835Z,16.11
2023-04-09T16:25:10.065Z,16.08
2023-04-09T16:27:39.045Z,16.01
2023-04-09T16:30:07.118Z,15.99
2023-04-09T16:32:34.355Z,15.95
2023-04-09T16:35:06.517Z,15.94
2023-04-09T16:37:35.101Z,15.91
2023-04-09T16:40:02.422Z,15.87
2023-04-09T16:42:31.011Z,15.84
2023-04-09T16:47:50.808Z,15.79
2023-04-09T16:50:20.784Z,15.76
2023-04-09T16:52:47.883Z,15.73
2023-04-09T16:55:14.868Z,15.69
2023-04-09T16:57:41.897Z,15.67
2023-04-09T17:00:12.934Z,15.64
2023-04-09T17:02:41.561Z,15.60
2023-04-09T17:05:09.572Z,15.57
2023-04-09T17:07:38.141Z,15.53
2023-04-09T17:10:14.321Z,15.50
2023-04-09T17:12:42.334Z,15.47
2023-04-09T17:15:10.728Z,15.42
2023-04-09T17:17:39.339Z,15.37
2023-04-09T17:20:08.528Z,15.35
2023-04-09T17:22:40.052Z,15.32
2023-04-09T17:25:07.908Z,15.27
2023-04-09T17:27:34.952Z,15.24
2023-04-09T17:30:02.316Z,15.20
2023-04-09T17:32:29.782Z,15.18
2023-04-09T17:34:56.730Z,15.16
2023-04-09T17:37:25.218Z,15.12
2023-04-09T17:39:53.485Z,15.10
2023-04-09T17:42:22.053Z,15.07
2023-04-09T17:44:48.800Z,15.05
2023-04-09T17:47:16.056Z,15.01
2023-04-09T17:49:43.224Z,14.93
2023-04-09T17:52:10.472Z,14.89
2023-04-09T17:54:38.884Z,14.84
2023-04-09T17:57:08.334Z,14.79
2023-04-09T17:59:36.009Z,14.74
2023-04-09T18:02:03.748Z,14.71
2023-04-09T18:04:31.786Z,14.67
2023-04-09T18:06:58.937Z,14.63
2023-04-09T18:09:26.226Z,14.59
2023-04-09T18:11:56.631Z,14.55
2023-04-09T18:14:25.017Z,14.47
2023-04-09T18:16:52.006Z,14.41
2023-04-09T18:19:18.886Z,14.34
2023-04-09T18:21:45.841Z,14.27
2023-04-09T18:24:12.812Z,14.22
2023-04-09T18:26:40.117Z,14.16
2023-04-09T18:29:09.930Z,14.10
2023-04-09T18:31:38.228Z,14.06
2023-04-09T18:34:05.178Z,14.00
2023-04-09T18:36:34.339Z,13.97
2023-04-09T18:39:02.177Z,13.90
2023-04-09T18:41:30.746Z,13.86
2023-04-09T18:43:58.898Z,13.81
2023-04-09T18:46:26.698Z,13.72
2023-04-09T18:48:56.356Z,13.65
2023-04-09T18:51:24.473Z,13.61
2023-04-09T18:53:53.985Z,13.54
2023-04-09T18:56:21.168Z,13.45
2023-04-09T18:58:48.126Z,13.39
2023-04-09T19:01:17.601Z,13.29
2023-04-09T19:03:45.224Z,13.21
2023-04-09T19:06:17.892Z,13.15
2023-04-09T19:08:45.046Z,13.10
2023-04-09T19:11:21.469Z,13.01
2023-04-09T19:13:50.097Z,12.95
2023-04-09T19:16:18.431Z,12.90
2023-04-09T19:18:45.357Z,12.85
2023-04-09T19:21:12.291Z,12.80
2023-04-09T19:23:41.341Z,12.75
2023-04-09T19:26:10.576Z,12.69
2023-04-09T19:28:37.793Z,12.64
2023-04-09T19:31:06.609Z,12.57
2023-04-09T19:33:35.897Z,12.52
2023-04-09T19:36:02.895Z,12.48
2023-04-09T19:38:29.714Z,12.43
2023-04-09T19:40:57.946Z,12.38
2023-04-09T19:43:24.893Z,12.33
2023-04-09T19:45:51.811Z,12.29
2023-04-09T19:48:18.593Z,12.23
2023-04-09T19:50:46.304Z,12.16
2023-04-09T19:53:13.137Z,12.07
2023-04-09T19:55:40.457Z,12.01
2023-04-09T19:58:08.649Z,11.96
2023-04-09T20:00:35.444Z,11.92
2023-04-09T20:03:03.197Z,11.92
2023-04-09T20:05:30.252Z,11.89
2023-04-09T20:07:57.201Z,11.88
2023-04-09T20:10:24.346Z,11.85
2023-04-09T20:12:52.108Z,11.84
2023-04-09T20:15:21.695Z,11.81
2023-04-09T20:17:49.460Z,11.78
2023-04-09T20:20:20.405Z,11.76
2023-04-09T20:22:56.424Z,11.75
2023-04-09T20:25:24.045Z,11.71
2023-04-09T20:27:52.959Z,11.69
2023-04-09T20:30:21.704Z,11.66
2023-04-09T20:32:49.241Z,11.64
2023-04-09T20:35:16.386Z,11.62
2023-04-09T20:37:43.202Z,11.61
2023-04-09T20:40:11.554Z,11.59
2023-04-09T20:42:39.090Z,11.58
2023-04-09T20:45:09.676Z,11.54
2023-04-09T20:47:38.100Z,11.52
2023-04-09T20:50:05.697Z,11.49
2023-04-09T20:52:32.459Z,11.47
2023-04-09T20:55:01.051Z,11.46
2023-04-09T20:57:28.314Z,11.44
2023-04-09T20:59:55.138Z,11.43
2023-04-09T21:02:22.144Z,11.42
2023-04-09T21:04:50.468Z,11.38
2023-04-09T21:07:17.293Z,11.34
2023-04-09T21:09:45.500Z,11.31
2023-04-09T21:12:12.361Z,11.27
2023-04-09T21:14:39.252Z,11.24
2023-04-09T21:17:06.461Z,11.23
2023-04-09T21:19:33.418Z,11.20
2023-04-09T21:22:01.881Z,11.16
2023-04-09T21:24:34.930Z,11.12
2023-04-09T21:27:04.026Z,11.11
2023-04-09T21:29:30.868Z,11.08
2023-04-09T21:31:58.951Z,11.06
2023-04-09T21:34:25.818Z,11.04
2023-04-09T21:36:52.663Z,11.01
2023-04-09T21:39:21.236Z,10.98
2023-04-09T21:41:48.055Z,10.95
2023-04-09T21:45:13.124Z,10.95
2023-04-09T21:47:39.970Z,10.92
2023-04-09T21:50:08.431Z,10.90
2023-04-09T21:52:35.221Z,10.87
2023-04-09T21:55:05.754Z,10.85
2023-04-09T21:57:32.710Z,10.83
2023-04-09T22:00:00.442Z,10.81
2023-04-09T22:02:28.145Z,10.77
2023-04-09T22:04:55.400Z,10.75
2023-04-09T22:07:22.214Z,10.72
2023-04-09T22:09:49.865Z,10.71
2023-04-09T22:12:18.076Z,10.68
2023-04-09T22:14:46.093Z,10.65
2023-04-09T22:17:17.860Z,10.62
2023-04-09T22:19:44.756Z,10.59
2023-04-09T22:22:13.539Z,10.56
2023-04-09T22:24:41.769Z,10.53
2023-04-09T22:27:08.906Z,10.50
2023-04-09T22:29:37.218Z,10.46
2023-04-09T22:32:04.392Z,10.43
2023-04-09T22:34:31.261Z,10.41
2023-04-09T22:36:58.537Z,10.38
2023-04-09T22:39:26.692Z,10.38
2023-04-09T22:41:56.235Z,10.36
2023-04-09T22:44:23.090Z,10.35
2023-04-09T22:46:52.319Z,10.33
2023-04-09T22:49:19.520Z,10.33
2023-04-09T22:51:48.147Z,10.30
2023-04-09T22:54:16.545Z,10.28
2023-04-09T22:56:45.088Z,10.27
2023-04-09T22:59:11.993Z,10.27
2023-04-09T23:01:43.791Z,10.25
2023-04-09T23:04:11.971Z,10.24
2023-04-09T23:06:39.328Z,10.23
2023-04-09T23:09:06.141Z,10.21
2023-04-09T23:11:32.926Z,10.18
2023-04-09T23:14:00.190Z,10.15
2023-04-09T23:16:27.323Z,10.14
2023-04-09T23:18:54.688Z,10.13
2023-04-09T23:21:22.995Z,10.13
2023-04-09T23:23:49.843Z,10.11
2023-04-09T23:26:16.767Z,10.11
2023-04-09T23:28:46.324Z,10.11
2023-04-09T23:31:13.130Z,10.12
2023-04-09T23:33:42.508Z,10.12
2023-04-09T23:36:12.654Z,10.11
2023-04-09T23:38:44.042Z,10.11
2023-04-09T23:41:10.951Z,10.10
2023-04-09T23:43:37.653Z,10.10
2023-04-09T23:46:04.758Z,10.08
2023-04-09T23:48:31.475Z,10.08
2023-04-09T23:50:58.184Z,10.06
2023-04-09T23:53:25.249Z,10.03
2023-04-09T23:55:53.390Z,10.02
2023-04-09T23:58:21.616Z,10.00
